createdAt,value
2023-03-11T00:00:46.727Z,-8.60
2023-03-11T00:03:21.771Z,-8.70
2023-03-11T00:05:52.986Z,-8.60
2023-03-11T00:08:25.256Z,-8.70
2023-03-11T00:10:55.692Z,-8.70
2023-03-11T00:13:23.337Z,-8.80
2023-03-11T00:15:56.108Z,-8.80
2023-03-11T00:18:27.205Z,-8.80
2023-03-11T00:20:55.765Z,-8.80
2023-03-11T00:23:24.275Z,-8.80
2023-03-11T00:25:52.177Z,-8.80
2023-03-11T00:28:19.367Z,-8.80
2023-03-11T00:30:47.231Z,-8.80
2023-03-11T00:33:16.792Z,-8.90
2023-03-11T00:35:44.721Z,-9.00
2023-03-11T00:38:18.858Z,-9.10
2023-03-11T00:40:47.550Z,-9.10
2023-03-11T00:43:16.180Z,-9.20
2023-03-11T00:45:43.305Z,-9.20
2023-03-11T00:48:12.578Z,-9.40
2023-03-11T00:50:40.683Z,-9.60
2023-03-11T00:53:08.063Z,-9.80
2023-03-11T00:55:36.587Z,-10.00
2023-03-11T00:58:07.071Z,-9.90
2023-03-11T01:00:35.037Z,-9.80
2023-03-11T01:03:02.913Z,-9.80
2023-03-11T01:05:32.690Z,-9.70
2023-03-11T01:08:00.774Z,-9.50
2023-03-11T01:10:29.881Z,-9.50
2023-03-11T01:12:57.586Z,-9.50
2023-03-11T01:15:29.131Z,-9.60
2023-03-11T01:17:56.685Z,-9.60
2023-03-11T01:20:24.565Z,-9.70
2023-03-11T01:22:51.844Z,-9.70
2023-03-11T01:25:22.738Z,-9.70
2023-03-11T01:27:50.121Z,-9.80
2023-03-11T01:30:21.176Z,-9.80
2023-03-11T01:32:49.118Z,-9.80
2023-03-11T01:35:18.015Z,-9.70
2023-03-11T01:37:45.314Z,-9.90
2023-03-11T01:40:24.939Z,-9.90
2023-03-11T01:42:52.177Z,-9.90
2023-03-11T01:45:49.568Z,-9.90
2023-03-11T01:48:16.699Z,-10.10
2023-03-11T01:50:48.714Z,-10.20
2023-03-11T01:53:17.600Z,-10.20
2023-03-11T01:55:46.052Z,-10.10
2023-03-11T01:58:24.041Z,-10.10
2023-03-11T02:00:51.274Z,-10.20
2023-03-11T02:03:26.139Z,-10.20
2023-03-11T02:05:55.850Z,-10.20
2023-03-11T02:08:23.514Z,-10.20
2023-03-11T02:10:53.276Z,-10.30
2023-03-11T02:13:21.120Z,-10.40
2023-03-11T02:15:48.662Z,-10.40
2023-03-11T02:18:20.423Z,-10.40
2023-03-11T02:21:06.414Z,-10.30
2023-03-11T02:23:54.123Z,-10.40
2023-03-11T02:26:48.615Z,-10.40
2023-03-11T02:29:16.499Z,-10.50
2023-03-11T02:31:44.411Z,-10.50
2023-03-11T02:34:21.736Z,-10.50
2023-03-11T02:36:49.355Z,-10.60
2023-03-11T02:39:16.874Z,-10.60
2023-03-11T02:41:47.156Z,-10.60
2023-03-11T02:44:16.817Z,-10.70
2023-03-11T02:46:44.470Z,-10.80
2023-03-11T02:49:12.752Z,-10.70
2023-03-11T02:51:40.117Z,-10.70
2023-03-11T02:54:07.645Z,-10.60
2023-03-11T02:56:35.126Z,-10.60
2023-03-11T02:59:02.398Z,-10.60
2023-03-11T03:01:29.787Z,-10.70
2023-03-11T03:03:56.963Z,-10.70
2023-03-11T03:06:25.370Z,-10.60
2023-03-11T03:08:52.567Z,-10.70
2023-03-11T03:11:20.068Z,-10.80
2023-03-11T03:13:48.541Z,-10.80
2023-03-11T03:16:16.034Z,-10.70
2023-03-11T03:18:43.520Z,-10.70
2023-03-11T03:21:10.687Z,-10.70
2023-03-11T03:23:37.973Z,-10.70
2023-03-11T03:26:06.246Z,-10.50
2023-03-11T03:28:33.538Z,-10.50
2023-03-11T03:31:07.743Z,-10.50
2023-03-11T03:33:35.495Z,-10.50
2023-03-11T03:36:10.500Z,-10.30
2023-03-11T03:38:38.195Z,-10.30
2023-03-11T03:41:06.161Z,-10.30
2023-03-11T03:43:33.817Z,-10.20
2023-03-11T03:46:04.879Z,-10.20
2023-03-11T03:48:32.891Z,-10.10
2023-03-11T03:51:05.498Z,-10.10
2023-03-11T03:53:35.034Z,-10.00
2023-03-11T03:56:07.108Z,-10.00
2023-03-11T03:58:34.406Z,-9.90
2023-03-11T04:01:02.083Z,-9.90
2023-03-11T04:03:29.558Z,-9.80
2023-03-11T04:06:11.372Z,-9.80
2023-03-11T04:08:40.145Z,-9.80
2023-03-11T04:11:07.644Z,-9.70
2023-03-11T04:13:35.108Z,-9.70
2023-03-11T04:16:07.288Z,-9.70
2023-03-11T04:18:34.882Z,-9.70
2023-03-11T04:21:06.139Z,-9.60
2023-03-11T04:23:34.689Z,-9.70
2023-03-11T04:26:02.113Z,-9.80
2023-03-11T04:28:29.200Z,-9.80
2023-03-11T04:30:56.848Z,-9.80
2023-03-11T04:33:24.225Z,-9.80
2023-03-11T04:35:51.400Z,-9.80
2023-03-11T04:38:18.661Z,-9.90
2023-03-11T04:40:46.010Z,-9.90
2023-03-11T04:43:13.754Z,-9.90
2023-03-11T04:45:42.649Z,-9.80
2023-03-11T04:48:10.064Z,-9.80
2023-03-11T04:50:37.488Z,-9.90
2023-03-11T04:53:04.909Z,-9.90
2023-03-11T04:55:33.513Z,-10.00
2023-03-11T04:58:00.974Z,-10.00
2023-03-11T05:00:28.661Z,-10.00
2023-03-11T05:02:56.282Z,-10.10
2023-03-11T05:05:24.021Z,-10.00
2023-03-11T05:07:51.169Z,-10.00
2023-03-11T05:10:22.825Z,-10.00
2023-03-11T05:12:50.837Z,-10.00
2023-03-11T05:15:18.993Z,-10.00
2023-03-11T05:17:46.156Z,-9.90
2023-03-11T05:20:15.751Z,-9.90
2023-03-11T05:22:43.174Z,-9.90
2023-03-11T05:25:10.748Z,-9.90
2023-03-11T05:27:38.193Z,-9.90
2023-03-11T05:30:06.447Z,-10.00
2023-03-11T05:32:33.972Z,-10.00
2023-03-11T05:35:01.383Z,-9.90
2023-03-11T05:37:30.985Z,-9.90
2023-03-11T05:39:58.430Z,-9.80
2023-03-11T05:42:25.861Z,-9.80
2023-03-11T05:44:53.336Z,-9.80
2023-03-11T05:47:20.544Z,-9.90
2023-03-11T05:49:49.220Z,-10.00
2023-03-11T05:52:17.457Z,-10.00
2023-03-11T05:54:44.768Z,-9.90
2023-03-11T05:57:12.225Z,-9.80
2023-03-11T05:59:39.639Z,-9.70
2023-03-11T06:02:06.811Z,-9.60
2023-03-11T06:04:34.372Z,-9.40
2023-03-11T06:07:01.868Z,-9.30
2023-03-11T06:09:29.043Z,-9.30
2023-03-11T06:11:56.174Z,-9.30
2023-03-11T06:14:23.767Z,-9.00
2023-03-11T06:16:50.865Z,-9.20
2023-03-11T06:19:18.363Z,-9.10
2023-03-11T06:21:45.496Z,-9.10
2023-03-11T06:24:12.585Z,-9.00
2023-03-11T06:26:39.725Z,-8.80
2023-03-11T06:29:13.168Z,-8.80
2023-03-11T06:31:41.672Z,-8.50
2023-03-11T06:34:11.222Z,-8.30
2023-03-11T06:36:38.742Z,-7.90
2023-03-11T06:39:06.291Z,-8.10
2023-03-11T06:41:35.056Z,-7.80
2023-03-11T06:44:03.045Z,-7.40
2023-03-11T06:46:30.772Z,-7.10
2023-03-11T06:48:58.519Z,-6.80
2023-03-11T06:51:25.779Z,-6.60
2023-03-11T06:53:54.016Z,-6.40
2023-03-11T06:56:22.853Z,-6.60
2023-03-11T06:58:50.236Z,-6.70
2023-03-11T07:01:20.299Z,-6.50
2023-03-11T07:03:48.695Z,-6.30
2023-03-11T07:06:24.925Z,-6.30
2023-03-11T07:08:53.428Z,-6.20
2023-03-11T07:11:23.247Z,-6.50
2023-03-11T07:13:51.356Z,-6.40
2023-03-11T07:16:20.951Z,-6.40
2023-03-11T07:18:50.250Z,-6.20
2023-03-11T07:21:20.259Z,-6.10
2023-03-11T07:23:49.380Z,-6.10
2023-03-11T07:26:18.105Z,-5.90
2023-03-11T07:28:45.496Z,-5.90
2023-03-11T07:31:18.872Z,-5.80
2023-03-11T07:33:46.304Z,-5.50
2023-03-11T07:36:19.868Z,-5.40
2023-03-11T07:38:47.404Z,-5.30
2023-03-11T07:41:16.187Z,-5.00
2023-03-11T07:43:44.180Z,-4.90
2023-03-11T07:46:14.212Z,-4.80
2023-03-11T07:48:41.516Z,-4.60
2023-03-11T07:51:16.381Z,-4.40
2023-03-11T07:53:44.166Z,-3.90
2023-03-11T07:56:13.396Z,-3.50
2023-03-11T07:58:41.500Z,-3.30
2023-03-11T08:01:16.256Z,-3.00
2023-03-11T08:03:45.824Z,-2.90
2023-03-11T08:06:24.956Z,-2.60
2023-03-11T08:08:54.494Z,-2.40
2023-03-11T08:11:22.691Z,-2.20
2023-03-11T08:13:50.866Z,-2.30
2023-03-11T08:16:20.908Z,-1.90
2023-03-11T08:18:49.397Z,-1.90
2023-03-11T08:21:20.213Z,-2.30
2023-03-11T08:23:47.336Z,-2.20
2023-03-11T08:26:18.013Z,-2.10
2023-03-11T08:28:45.662Z,-1.40
2023-03-11T08:31:14.805Z,-1.10
2023-03-11T08:33:43.325Z,-0.90
2023-03-11T08:36:10.687Z,-0.70
2023-03-11T08:38:38.639Z,-0.50
2023-03-11T08:41:06.526Z,-0.60
2023-03-11T08:43:33.940Z,-0.60
2023-03-11T08:46:02.628Z,-0.80
2023-03-11T08:48:30.172Z,-0.30
2023-03-11T08:50:57.406Z,0.30
2023-03-11T08:53:25.447Z,0.20
2023-03-11T08:55:53.351Z,-0.20
2023-03-11T08:58:21.307Z,0.50
2023-03-11T09:00:48.837Z,0.50
2023-03-11T09:03:16.230Z,0.90
2023-03-11T09:05:43.808Z,1.50
2023-03-11T09:08:11.421Z,1.50
2023-03-11T09:10:38.716Z,1.60
2023-03-11T09:13:05.850Z,1.90
2023-03-11T09:15:33.547Z,1.30
2023-03-11T09:18:01.009Z,1.60
2023-03-11T09:20:28.158Z,1.90
2023-03-11T09:22:55.239Z,2.00
2023-03-11T09:25:22.612Z,2.10
2023-03-11T09:27:49.968Z,1.90
2023-03-11T09:30:17.708Z,2.20
2023-03-11T09:32:44.891Z,2.70
2023-03-11T09:35:12.454Z,2.80
2023-03-11T09:37:39.661Z,3.10
2023-03-11T09:40:07.763Z,3.20
2023-03-11T09:43:03.292Z,3.00
2023-03-11T09:45:34.823Z,2.60
2023-03-11T09:48:25.046Z,2.40
2023-03-11T09:51:18.142Z,2.00
2023-03-11T09:53:46.674Z,1.70
2023-03-11T09:56:17.521Z,1.80
2023-03-11T09:58:56.633Z,1.20
2023-03-11T10:01:29.275Z,1.90
2023-03-11T10:04:02.444Z,1.90
2023-03-11T10:06:30.582Z,2.00
2023-03-11T10:09:10.736Z,2.40
2023-03-11T10:12:06.177Z,2.40
2023-03-11T10:14:43.130Z,2.60
2023-03-11T10:17:31.678Z,3.10
2023-03-11T10:20:13.405Z,2.90
2023-03-11T10:22:46.950Z,2.50
2023-03-11T10:25:19.116Z,2.50
2023-03-11T10:27:49.571Z,2.00
2023-03-11T10:30:31.472Z,2.50
2023-03-11T10:33:06.807Z,2.50
2023-03-11T10:35:42.705Z,2.80
2023-03-11T10:38:21.912Z,3.00
2023-03-11T10:40:54.016Z,3.30
2023-03-11T10:43:29.414Z,3.30
2023-03-11T10:45:57.057Z,3.20
2023-03-11T10:48:26.026Z,3.50
2023-03-11T10:51:22.803Z,3.60
2023-03-11T10:53:58.562Z,3.20
2023-03-11T10:56:27.463Z,3.30
2023-03-11T10:58:55.385Z,2.90
2023-03-11T11:01:23.574Z,2.60
2023-03-11T11:03:56.087Z,2.40
2023-03-11T11:06:30.130Z,2.70
2023-03-11T11:09:17.437Z,3.20
2023-03-11T11:12:00.728Z,3.30
2023-03-11T11:14:42.931Z,3.10
2023-03-11T11:17:26.719Z,2.80
2023-03-11T11:19:57.090Z,3.00
2023-03-11T11:22:25.703Z,3.40
2023-03-11T11:24:55.504Z,3.40
2023-03-11T11:27:25.334Z,3.80
2023-03-11T11:30:15.203Z,4.00
2023-03-11T11:32:43.299Z,3.70
2023-03-11T11:35:16.570Z,2.80
2023-03-11T11:37:59.648Z,2.60
2023-03-11T11:40:33.250Z,2.60
2023-03-11T11:43:15.065Z,2.20
2023-03-11T11:45:49.392Z,2.30
2023-03-11T11:49:07.454Z,2.60
2023-03-11T11:51:40.416Z,2.20
2023-03-11T11:54:24.116Z,1.80
2023-03-11T11:56:51.328Z,2.60
2023-03-11T11:59:21.916Z,2.90
2023-03-11T12:02:12.277Z,3.30
2023-03-11T12:05:06.450Z,3.20
2023-03-11T12:07:36.420Z,3.60
2023-03-11T12:10:35.649Z,3.50
2023-03-11T12:13:29.344Z,3.10
2023-03-11T12:16:06.013Z,3.00
2023-03-11T12:18:36.444Z,2.60
2023-03-11T12:21:20.025Z,1.90
2023-03-11T12:24:03.555Z,2.70
2023-03-11T12:26:35.515Z,2.50
2023-03-11T12:29:17.501Z,3.00
2023-03-11T12:31:46.156Z,2.70
2023-03-11T12:34:17.950Z,2.90
2023-03-11T12:36:47.181Z,3.30
2023-03-11T12:39:20.368Z,3.70
2023-03-11T12:41:47.640Z,3.40
2023-03-11T12:44:21.498Z,3.00
2023-03-11T12:46:57.535Z,3.10
2023-03-11T12:49:33.404Z,3.00
2023-03-11T12:52:08.902Z,2.70
2023-03-11T12:54:37.456Z,2.90
2023-03-11T12:57:36.009Z,2.70
2023-03-11T13:00:24.664Z,2.70
2023-03-11T13:03:24.856Z,2.90
2023-03-11T13:06:10.686Z,2.80
2023-03-11T13:08:54.893Z,2.70
2023-03-11T13:11:34.333Z,2.80
2023-03-11T13:14:23.218Z,3.10
2023-03-11T13:16:50.927Z,3.00
2023-03-11T13:19:47.984Z,3.30
2023-03-11T13:22:54.149Z,3.30
2023-03-11T13:25:39.781Z,3.00
2023-03-11T13:28:33.879Z,3.00
2023-03-11T13:31:37.608Z,3.00
2023-03-11T13:34:17.014Z,3.20
2023-03-11T13:36:55.813Z,3.30
2023-03-11T13:39:29.026Z,3.20
2023-03-11T13:41:56.698Z,3.10
2023-03-11T13:44:31.331Z,3.20
2023-03-11T13:47:11.304Z,3.20
2023-03-11T13:50:10.884Z,2.90
2023-03-11T13:52:55.459Z,2.70
2023-03-11T13:55:31.248Z,2.30
2023-03-11T13:57:58.853Z,2.20
2023-03-11T14:00:30.794Z,2.20
2023-03-11T14:03:11.746Z,2.00
2023-03-11T14:05:46.514Z,2.30
2023-03-11T14:08:32.105Z,2.20
2023-03-11T14:11:13.705Z,2.20
2023-03-11T14:13:45.992Z,2.40
2023-03-11T14:16:36.069Z,2.30
2023-03-11T14:19:19.177Z,2.30
2023-03-11T14:21:49.869Z,1.70
2023-03-11T14:24:20.787Z,1.90
2023-03-11T14:26:49.955Z,2.10
2023-03-11T14:29:20.031Z,2.00
2023-03-11T14:31:48.316Z,1.50
2023-03-11T14:34:18.125Z,1.70
2023-03-11T14:36:55.549Z,1.60
2023-03-11T14:39:34.465Z,1.60
2023-03-11T14:42:09.049Z,1.70
2023-03-11T14:44:40.717Z,1.50
2023-03-11T14:47:11.125Z,1.50
2023-03-11T14:49:39.769Z,1.50
2023-03-11T14:52:15.585Z,1.40
2023-03-11T14:54:46.073Z,1.30
2023-03-11T14:57:25.217Z,1.20
2023-03-11T14:59:53.632Z,1.10
2023-03-11T15:02:35.153Z,0.70
2023-03-11T15:05:11.915Z,0.60
2023-03-11T15:07:40.447Z,0.40
2023-03-11T15:10:10.467Z,0.40
2023-03-11T15:12:44.889Z,0.50
2023-03-11T15:15:38.603Z,0.30
2023-03-11T15:18:23.949Z,0.40
2023-03-11T15:21:08.258Z,0.50
2023-03-11T15:23:38.053Z,0.40
2023-03-11T15:26:07.183Z,0.50
2023-03-11T15:28:37.377Z,0.50
2023-03-11T15:31:22.904Z,0.40
2023-03-11T15:33:53.412Z,0.30
2023-03-11T15:36:40.112Z,0.10
2023-03-11T15:39:18.234Z,0.10
2023-03-11T15:41:57.641Z,0.00
2023-03-11T15:44:36.484Z,0.00
2023-03-11T15:47:05.081Z,-0.10
2023-03-11T15:49:36.528Z,-0.20
2023-03-11T15:52:15.809Z,-0.30
2023-03-11T15:54:54.473Z,-0.40
2023-03-11T15:57:30.205Z,-0.50
2023-03-11T15:59:59.985Z,-0.70
2023-03-11T16:02:30.726Z,-0.80
2023-03-11T16:04:59.058Z,-1.00
2023-03-11T16:07:38.712Z,-1.20
2023-03-11T16:10:12.047Z,-1.30
2023-03-11T16:12:43.059Z,-1.40
2023-03-11T16:15:25.933Z,-1.60
2023-03-11T16:17:55.201Z,-1.80
2023-03-11T16:20:25.914Z,-1.80
2023-03-11T16:22:56.093Z,-1.90
2023-03-11T16:25:38.658Z,-2.10
2023-03-11T16:28:08.311Z,-2.20
2023-03-11T16:30:36.581Z,-2.50
2023-03-11T16:33:05.374Z,-2.80
2023-03-11T16:35:33.061Z,-2.80
2023-03-11T16:38:00.347Z,-2.90
2023-03-11T16:40:30.428Z,-3.10
2023-03-11T16:43:05.444Z,-3.20
2023-03-11T16:45:33.145Z,-3.40
2023-03-11T16:48:00.794Z,-3.60
2023-03-11T16:50:28.788Z,-3.60
2023-03-11T16:52:57.137Z,-3.80
2023-03-11T16:55:25.907Z,-3.80
2023-03-11T16:57:55.123Z,-3.90
2023-03-11T17:00:22.426Z,-4.00
2023-03-11T17:02:49.578Z,-4.10
2023-03-11T17:05:17.295Z,-4.20
2023-03-11T17:07:44.821Z,-4.30
2023-03-11T17:10:12.535Z,-4.40
2023-03-11T17:12:41.913Z,-4.50
2023-03-11T17:15:10.754Z,-4.60
2023-03-11T17:17:38.851Z,-4.80
2023-03-11T17:20:10.903Z,-4.90
2023-03-11T17:22:40.098Z,-4.90
2023-03-11T17:25:08.560Z,-5.00
2023-03-11T17:27:36.353Z,-4.90
2023-03-11T17:30:05.720Z,-5.00
2023-03-11T17:32:33.076Z,-5.10
2023-03-11T17:35:00.340Z,-5.10
2023-03-11T17:37:28.146Z,-5.20
2023-03-11T17:39:55.730Z,-5.50
2023-03-11T17:42:23.742Z,-5.70
2023-03-11T17:44:55.468Z,-5.70
2023-03-11T17:47:26.195Z,-5.90
2023-03-11T17:49:54.738Z,-6.00
2023-03-11T17:52:22.120Z,-6.10
2023-03-11T17:54:49.540Z,-6.20
2023-03-11T17:57:17.245Z,-6.40
2023-03-11T17:59:44.931Z,-6.50
2023-03-11T18:02:14.404Z,-6.50
2023-03-11T18:04:43.481Z,-6.60
2023-03-11T18:07:10.632Z,-6.70
2023-03-11T18:09:37.987Z,-6.70
2023-03-11T18:12:07.014Z,-6.80
2023-03-11T18:14:36.278Z,-6.90
2023-03-11T18:17:03.452Z,-7.00
2023-03-11T18:19:30.617Z,-7.10
2023-03-11T18:21:57.699Z,-7.20
2023-03-11T18:24:25.247Z,-7.30
2023-03-11T18:26:52.825Z,-7.40
2023-03-11T18:29:20.005Z,-7.50
2023-03-11T18:31:48.656Z,-7.50
2023-03-11T18:34:16.233Z,-7.70
2023-03-11T18:36:43.773Z,-7.80
2023-03-11T18:39:12.753Z,-7.80
2023-03-11T18:41:40.287Z,-7.90
2023-03-11T18:44:07.677Z,-8.00
2023-03-11T18:46:34.971Z,-7.80
2023-03-11T18:49:04.080Z,-8.00
2023-03-11T18:51:32.609Z,-8.10
2023-03-11T18:54:01.154Z,-8.10
2023-03-11T18:56:31.329Z,-8.30
2023-03-11T18:59:02.505Z,-8.40
2023-03-11T19:01:30.205Z,-8.40
2023-03-11T19:03:59.513Z,-8.40
2023-03-11T19:06:28.418Z,-8.50
2023-03-11T19:08:58.102Z,-8.60
2023-03-11T19:11:26.906Z,-8.70
2023-03-11T19:13:55.410Z,-8.70
2023-03-11T19:16:25.819Z,-8.80
2023-03-11T19:18:55.772Z,-8.80
2023-03-11T19:21:24.667Z,-8.80
2023-03-11T19:23:55.439Z,-8.80
2023-03-11T19:26:41.436Z,-8.80
2023-03-11T19:29:11.657Z,-8.80
2023-03-11T19:31:39.476Z,-9.00
2023-03-11T19:34:07.757Z,-9.10
2023-03-11T19:36:35.706Z,-9.10
2023-03-11T19:39:04.119Z,-9.10
2023-03-11T19:41:31.583Z,-9.30
2023-03-11T19:43:59.084Z,-9.20
2023-03-11T19:46:27.209Z,-9.30
2023-03-11T19:48:57.188Z,-9.10
2023-03-11T19:51:28.478Z,-9.30
2023-03-11T19:54:01.756Z,-9.30
2023-03-11T19:56:29.677Z,-9.40
2023-03-11T19:58:57.547Z,-9.70
2023-03-11T20:01:28.516Z,-9.50
2023-03-11T20:03:56.499Z,-9.60
2023-03-11T20:06:24.020Z,-9.70
2023-03-11T20:11:18.638Z,-9.90
2023-03-11T20:13:49.284Z,-9.90
2023-03-11T20:16:19.325Z,-10.00
2023-03-11T20:18:50.870Z,-10.00
2023-03-11T20:21:19.096Z,-10.10
2023-03-11T20:23:46.726Z,-10.10
2023-03-11T20:26:16.527Z,-10.20
2023-03-11T20:28:45.085Z,-10.30
2023-03-11T20:31:20.100Z,-10.20
2023-03-11T20:33:49.407Z,-10.30
2023-03-11T20:36:21.768Z,-10.30
2023-03-11T20:38:51.124Z,-10.30
2023-03-11T20:41:24.771Z,-10.40
2023-03-11T20:43:53.820Z,-10.50
2023-03-11T20:46:22.310Z,-10.60
2023-03-11T20:48:49.856Z,-10.60
2023-03-11T20:51:21.887Z,-10.70
2023-03-11T20:53:50.175Z,-10.60
2023-03-11T20:56:24.003Z,-10.70
2023-03-11T20:58:54.018Z,-10.80
2023-03-11T21:01:30.800Z,-10.80
2023-03-11T21:04:02.006Z,-10.90
2023-03-11T21:06:35.476Z,-10.90
2023-03-11T21:09:06.099Z,-11.10
2023-03-11T21:11:34.871Z,-10.90
2023-03-11T21:14:03.176Z,-10.90
2023-03-11T21:16:34.156Z,-11.00
2023-03-11T21:19:06.084Z,-11.10
2023-03-11T21:21:34.408Z,-11.10
2023-03-11T21:24:02.028Z,-11.10
2023-03-11T21:26:29.650Z,-11.20
2023-03-11T21:28:57.100Z,-11.20
2023-03-11T21:31:29.033Z,-11.30
2023-03-11T21:33:59.927Z,-11.40
2023-03-11T21:36:28.995Z,-11.50
2023-03-11T21:38:57.320Z,-11.50
2023-03-11T21:41:27.726Z,-11.50
2023-03-11T21:43:57.645Z,-11.60
2023-03-11T21:46:28.077Z,-11.70
2023-03-11T21:48:56.306Z,-11.70
2023-03-11T21:51:24.473Z,-11.70
2023-03-11T21:53:52.035Z,-11.70
2023-03-11T21:56:19.633Z,-11.70
2023-03-11T21:58:47.016Z,-11.80
2023-03-11T22:01:14.585Z,-11.80
2023-03-11T22:03:42.577Z,-12.00
2023-03-11T22:06:12.684Z,-12.00
2023-03-11T22:08:41.411Z,-12.00
2023-03-11T22:11:13.930Z,-11.90
2023-03-11T22:13:41.545Z,-11.90
2023-03-11T22:16:09.087Z,-12.00
2023-03-11T22:18:36.867Z,-12.10
2023-03-11T22:21:04.529Z,-12.20
2023-03-11T22:23:32.212Z,-12.30
2023-03-11T22:25:59.494Z,-12.20
2023-03-11T22:28:27.578Z,-12.20
2023-03-11T22:30:55.247Z,-12.10
2023-03-11T22:33:23.105Z,-12.20
2023-03-11T22:35:53.016Z,-12.30
2023-03-11T22:38:21.140Z,-12.20
2023-03-11T22:40:48.880Z,-12.30
2023-03-11T22:43:16.640Z,-12.40
2023-03-11T22:45:45.746Z,-12.50
2023-03-11T22:48:13.290Z,-12.50
2023-03-11T22:50:42.722Z,-12.60
2023-03-11T22:53:10.751Z,-12.30
2023-03-11T22:55:42.173Z,-12.20
2023-03-11T22:58:09.930Z,-12.20
2023-03-11T23:00:37.101Z,-12.40
2023-03-11T23:03:05.172Z,-12.50
2023-03-11T23:05:32.909Z,-12.50
2023-03-11T23:08:00.022Z,-12.60
2023-03-11T23:10:27.181Z,-12.70
2023-03-11T23:12:59.347Z,-12.80
2023-03-11T23:15:31.076Z,-12.70
2023-03-11T23:17:59.378Z,-12.70
2023-03-11T23:20:27.331Z,-12.70
2023-03-11T23:22:57.473Z,-12.70
2023-03-11T23:25:27.387Z,-12.70
2023-03-11T23:27:55.152Z,-12.80
2023-03-11T23:30:25.527Z,-12.80
2023-03-11T23:32:56.949Z,-12.90
2023-03-11T23:35:28.542Z,-13.10
2023-03-11T23:37:56.812Z,-13.30
2023-03-11T23:40:24.233Z,-13.20
2023-03-11T23:42:55.386Z,-13.00
2023-03-11T23:45:26.108Z,-13.20
2023-03-11T23:47:54.153Z,-13.20
2023-03-11T23:50:24.449Z,-13.20
2023-03-11T23:52:52.440Z,-13.20
2023-03-11T23:55:19.850Z,-13.20
2023-03-11T23:57:48.329Z,-13.20
